createdAt,value
2023-02-18T00:01:39.870Z,98841.09
2023-02-18T00:04:07.508Z,98824.72
2023-02-18T00:06:36.948Z,98843.38
2023-02-18T00:09:06.319Z,98839.50
2023-02-18T00:11:36.316Z,98848.03
2023-02-18T00:14:07.914Z,98834.56
2023-02-18T00:16:35.558Z,98851.50
2023-02-18T00:19:05.796Z,98846.84
2023-02-18T00:21:35.329Z,98837.19
2023-02-18T00:24:03.080Z,98843.78
2023-02-18T00:26:30.740Z,98833.66
2023-02-18T00:28:58.426Z,98828.28
2023-02-18T00:31:29.857Z,98836.16
2023-02-18T00:33:58.698Z,98838.56
2023-02-18T00:36:27.342Z,98844.03
2023-02-18T00:38:57.304Z,98837.25
2023-02-18T00:41:27.797Z,98843.84
2023-02-18T00:43:56.349Z,98820.84
2023-02-18T00:46:25.311Z,98835.31
2023-02-18T00:48:54.340Z,98842.69
2023-02-18T00:51:22.990Z,98834.97
2023-02-18T00:53:50.824Z,98828.72
2023-02-18T00:56:18.856Z,98828.72
2023-02-18T00:58:46.542Z,98838.19
2023-02-18T01:01:14.586Z,98839.78
2023-02-18T01:03:43.941Z,98836.56
2023-02-18T01:06:13.894Z,98839.50
2023-02-18T01:08:42.146Z,98845.91
2023-02-18T01:11:11.205Z,98842.69
2023-02-18T01:13:39.233Z,98839.50
2023-02-18T01:16:07.482Z,98841.75
2023-02-18T01:18:35.849Z,98841.94
2023-02-18T01:21:05.130Z,98845.09
2023-02-18T01:23:34.466Z,98845.94
2023-02-18T01:26:02.082Z,98851.97
2023-02-18T01:28:29.769Z,98848.75
2023-02-18T01:30:57.494Z,98849.78
2023-02-18T01:33:25.429Z,98851.41
2023-02-18T01:35:53.980Z,98853.66
2023-02-18T01:38:21.692Z,98856.13
2023-02-18T01:40:52.621Z,98863.69
2023-02-18T01:43:21.709Z,98865.28
2023-02-18T01:46:07.098Z,98868.84
2023-02-18T01:48:40.478Z,98863.41
2023-02-18T01:51:13.245Z,98853.78
2023-02-18T01:53:47.772Z,98872.41
2023-02-18T01:56:23.491Z,98875.59
2023-02-18T01:58:53.333Z,98873.34
2023-02-18T02:01:21.166Z,98870.16
2023-02-18T02:03:48.869Z,98873.50
2023-02-18T02:06:19.579Z,98867.41
2023-02-18T02:08:50.255Z,98860.50
2023-02-18T02:11:31.967Z,98855.03
2023-02-18T02:14:26.446Z,98838.47
2023-02-18T02:17:03.668Z,98846.19
2023-02-18T02:20:08.275Z,98829.00
2023-02-18T02:23:09.619Z,98828.19
2023-02-18T02:26:01.001Z,98836.28
2023-02-18T02:29:08.512Z,98841.09
2023-02-18T02:32:02.481Z,98835.16
2023-02-18T02:34:42.826Z,98840.63
2023-02-18T02:37:17.343Z,98830.66
2023-02-18T02:39:55.548Z,98811.72
2023-02-18T02:42:31.767Z,98823.44
2023-02-18T02:45:08.203Z,98823.44
2023-02-18T02:47:46.098Z,98804.03
2023-02-18T02:50:26.556Z,98808.19
2023-02-18T02:53:00.355Z,98792.84
2023-02-18T02:55:28.144Z,98788.00
2023-02-18T02:57:57.393Z,98792.47
2023-02-18T03:00:40.042Z,98779.13
2023-02-18T03:03:23.223Z,98778.13
2023-02-18T03:06:25.325Z,98775.03
2023-02-18T03:09:03.820Z,98780.31
2023-02-18T03:11:40.955Z,98754.75
2023-02-18T03:14:14.954Z,98776.94
2023-02-18T03:16:50.745Z,98775.94
2023-02-18T03:19:23.837Z,98772.09
2023-02-18T03:21:58.327Z,98767.41
2023-02-18T03:24:31.044Z,98778.34
2023-02-18T03:27:03.549Z,98778.00
2023-02-18T03:29:32.004Z,98779.25
2023-02-18T03:32:04.072Z,98779.25
2023-02-18T03:34:35.778Z,98780.84
2023-02-18T03:37:04.968Z,98782.47
2023-02-18T03:39:35.269Z,98777.78
2023-02-18T03:42:03.014Z,98780.84
2023-02-18T03:44:31.898Z,98774.72
2023-02-18T03:46:59.706Z,98774.25
2023-02-18T03:49:27.465Z,98778.94
2023-02-18T03:51:55.184Z,98785.50
2023-02-18T03:54:24.239Z,98777.47
2023-02-18T03:56:51.935Z,98780.19
2023-02-18T03:59:19.662Z,98783.13
2023-02-18T04:01:47.333Z,98781.78
2023-02-18T04:04:15.014Z,98788.84
2023-02-18T04:06:42.717Z,98787.13
2023-02-18T04:09:10.374Z,98781.72
2023-02-18T04:11:41.390Z,98783.53
2023-02-18T04:14:09.359Z,98788.03
2023-02-18T04:16:37.171Z,98799.91
2023-02-18T04:19:05.030Z,98792.19
2023-02-18T04:21:32.704Z,98791.25
2023-02-18T04:24:01.171Z,98792.84
2023-02-18T04:26:28.950Z,98796.56
2023-02-18T04:28:57.987Z,98790.59
2023-02-18T04:31:25.679Z,98782.59
2023-02-18T04:33:53.341Z,98796.03
2023-02-18T04:36:21.041Z,98781.25
2023-02-18T04:38:48.667Z,98798.31
2023-02-18T04:41:16.275Z,98786.72
2023-02-18T04:43:43.890Z,98788.31
2023-02-18T04:46:12.998Z,98778.19
2023-02-18T04:48:40.899Z,98789.28
2023-02-18T04:51:08.681Z,98785.84
2023-02-18T04:53:36.792Z,98781.41
2023-02-18T04:56:04.923Z,98785.50
2023-02-18T04:58:32.562Z,98782.47
2023-02-18T05:01:01.038Z,98788.84
2023-02-18T05:03:30.710Z,98779.25
2023-02-18T05:05:59.010Z,98780.66
2023-02-18T05:08:26.934Z,98772.47
2023-02-18T05:10:54.631Z,98785.19
2023-02-18T05:13:22.778Z,98787.91
2023-02-18T05:15:50.453Z,98787.44
2023-02-18T05:18:18.161Z,98788.66
2023-02-18T05:20:47.199Z,98783.63
2023-02-18T05:23:14.835Z,98784.94
2023-02-18T05:25:42.606Z,98777.59
2023-02-18T05:28:10.297Z,98779.84
2023-02-18T05:30:37.938Z,98781.47
2023-02-18T05:33:05.862Z,98789.31
2023-02-18T05:35:33.462Z,98775.34
2023-02-18T05:38:02.469Z,98773.22
2023-02-18T05:40:30.145Z,98777.44
2023-02-18T05:42:57.848Z,98777.38
2023-02-18T05:45:25.574Z,98768.72
2023-02-18T05:47:53.214Z,98780.28
2023-02-18T05:50:21.070Z,98781.22
2023-02-18T05:52:48.756Z,98769.50
2023-02-18T05:55:17.866Z,98768.84
2023-02-18T05:57:45.588Z,98768.84
2023-02-18T06:00:14.326Z,98757.28
2023-02-18T06:02:42.159Z,98760.47
2023-02-18T06:05:10.440Z,98771.19
2023-02-18T06:07:38.789Z,98771.00
2023-02-18T06:10:08.275Z,98767.13
2023-02-18T06:12:37.290Z,98771.00
2023-02-18T06:15:05.596Z,98771.47
2023-02-18T06:17:33.243Z,98761.69
2023-02-18T06:20:00.955Z,98762.63
2023-02-18T06:22:28.659Z,98756.69
2023-02-18T06:24:56.336Z,98755.56
2023-02-18T06:27:23.992Z,98766.47
2023-02-18T06:29:53.049Z,98754.91
2023-02-18T06:32:20.846Z,98754.22
2023-02-18T06:34:48.573Z,98753.28
2023-02-18T06:37:16.217Z,98734.66
2023-02-18T06:39:44.026Z,98737.38
2023-02-18T06:42:11.699Z,98740.69
2023-02-18T06:44:39.438Z,98746.28
2023-02-18T06:47:08.483Z,98722.19
2023-02-18T06:49:37.212Z,98732.09
2023-02-18T06:52:05.034Z,98738.47
2023-02-18T06:54:32.741Z,98723.56
2023-02-18T06:57:00.677Z,98721.66
2023-02-18T06:59:28.398Z,98715.81
2023-02-18T07:01:56.154Z,98725.28
2023-02-18T07:04:25.189Z,98722.22
2023-02-18T07:06:52.850Z,98730.41
2023-02-18T07:09:20.515Z,98722.22
2023-02-18T07:11:50.068Z,98730.66
2023-02-18T07:14:17.689Z,98705.59
2023-02-18T07:16:45.351Z,98715.72
2023-02-18T07:19:14.843Z,98708.78
2023-02-18T07:21:44.061Z,98713.56
2023-02-18T07:24:11.873Z,98705.16
2023-02-18T07:26:39.666Z,98712.22
2023-02-18T07:29:07.360Z,98704.72
2023-02-18T07:31:35.137Z,98710.19
2023-02-18T07:34:02.911Z,98713.38
2023-02-18T07:36:30.675Z,98719.00
2023-02-18T07:38:59.770Z,98720.59
2023-02-18T07:41:27.500Z,98721.06
2023-02-18T07:43:55.232Z,98725.06
2023-02-18T07:46:23.062Z,98725.97
2023-02-18T07:48:50.885Z,98724.03
2023-02-18T07:51:18.768Z,98726.41
2023-02-18T07:53:46.460Z,98718.22
2023-02-18T07:56:15.692Z,98719.59
2023-02-18T07:58:43.485Z,98712.13
2023-02-18T08:01:13.428Z,98715.28
2023-02-18T08:03:41.166Z,98708.34
2023-02-18T08:06:10.060Z,98704.34
2023-02-18T08:08:37.995Z,98700.50
2023-02-18T08:11:17.092Z,98701.28
2023-02-18T08:13:48.022Z,98705.97
2023-02-18T08:16:16.093Z,98710.28
2023-02-18T08:18:44.461Z,98700.75
2023-02-18T08:21:12.222Z,98697.78
2023-02-18T08:23:39.947Z,98693.00
2023-02-18T08:26:08.713Z,98685.03
2023-02-18T08:28:36.642Z,98665.75
2023-02-18T08:31:06.232Z,98680.50
2023-02-18T08:33:34.993Z,98685.00
2023-02-18T08:36:02.806Z,98683.69
2023-02-18T08:38:30.526Z,98679.03
2023-02-18T08:41:02.902Z,98686.81
2023-02-18T08:43:30.648Z,98674.09
2023-02-18T08:45:59.237Z,98678.09
2023-02-18T08:48:30.530Z,98668.19
2023-02-18T08:50:58.639Z,98675.38
2023-02-18T08:53:26.783Z,98654.41
2023-02-18T08:55:54.468Z,98661.84
2023-02-18T08:58:22.146Z,98667.78
2023-02-18T09:00:49.916Z,98659.69
2023-02-18T09:03:17.694Z,98650.03
2023-02-18T09:05:46.762Z,98633.91
2023-02-18T09:08:14.535Z,98629.09
2023-02-18T09:10:42.826Z,98622.03
2023-02-18T09:13:11.212Z,98628.66
2023-02-18T09:15:39.034Z,98603.81
2023-02-18T09:18:06.928Z,98607.88
2023-02-18T09:20:34.643Z,98595.28
2023-02-18T09:23:03.684Z,98602.34
2023-02-18T09:25:31.669Z,98597.16
2023-02-18T09:27:59.433Z,98604.97
2023-02-18T09:30:27.300Z,98607.72
2023-02-18T09:32:55.074Z,98596.94
2023-02-18T09:35:22.801Z,98598.09
2023-02-18T09:37:50.492Z,98617.69
2023-02-18T09:40:26.756Z,98614.97
2023-02-18T09:42:57.449Z,98615.06
2023-02-18T09:45:25.600Z,98625.22
2023-02-18T09:47:54.218Z,98625.72
2023-02-18T09:50:24.051Z,98614.16
2023-02-18T09:52:53.961Z,98612.69
2023-02-18T09:55:26.141Z,98610.28
2023-02-18T09:57:56.172Z,98614.94
2023-02-18T10:00:33.342Z,98609.72
2023-02-18T10:03:06.643Z,98600.53
2023-02-18T10:05:36.169Z,98604.34
2023-02-18T10:08:07.545Z,98598.06
2023-02-18T10:10:43.027Z,98592.59
2023-02-18T10:13:14.937Z,98593.66
2023-02-18T10:15:44.020Z,98602.06
2023-02-18T10:21:08.240Z,98602.84
2023-02-18T10:23:40.848Z,98588.72
2023-02-18T10:26:17.253Z,98596.03
2023-02-18T10:28:45.640Z,98601.25
2023-02-18T10:31:19.687Z,98585.63
2023-02-18T10:33:50.841Z,98577.94
2023-02-18T10:36:27.271Z,98573.56
2023-02-18T10:39:21.890Z,98574.63
2023-02-18T10:42:02.123Z,98563.59
2023-02-18T10:44:39.766Z,98572.63
2023-02-18T10:47:21.602Z,98570.50
2023-02-18T10:49:58.658Z,98576.44
2023-02-18T10:52:30.406Z,98576.44
2023-02-18T10:55:05.056Z,98567.75
2023-02-18T10:57:34.567Z,98570.22
2023-02-18T11:00:11.778Z,98575.69
2023-02-18T11:02:40.662Z,98578.00
2023-02-18T11:05:20.266Z,98569.53
2023-02-18T11:07:50.200Z,98575.81
2023-02-18T11:10:23.278Z,98566.53
2023-02-18T11:12:56.679Z,98552.03
2023-02-18T11:15:26.375Z,98558.56
2023-02-18T11:17:56.380Z,98546.09
2023-02-18T11:20:33.660Z,98555.47
2023-02-18T11:23:17.982Z,98544.78
2023-02-18T11:25:56.769Z,98549.41
2023-02-18T11:28:34.996Z,98547.09
2023-02-18T11:31:05.355Z,98539.94
2023-02-18T11:33:36.546Z,98541.44
2023-02-18T11:36:18.341Z,98532.75
2023-02-18T11:38:50.484Z,98531.16
2023-02-18T11:41:21.567Z,98529.75
2023-02-18T11:43:53.210Z,98527.28
2023-02-18T11:46:24.015Z,98527.81
2023-02-18T11:48:54.178Z,98537.28
2023-02-18T11:51:26.743Z,98525.69
2023-02-18T11:54:02.052Z,98508.78
2023-02-18T11:56:32.748Z,98515.38
2023-02-18T11:59:03.795Z,98519.59
2023-02-18T12:01:42.942Z,98509.44
2023-02-18T12:04:14.704Z,98507.94
2023-02-18T12:06:50.745Z,98519.69
2023-02-18T12:09:30.116Z,98494.03
2023-02-18T12:12:02.338Z,98491.75
2023-02-18T12:14:33.386Z,98508.88
2023-02-18T12:17:54.283Z,98491.84
2023-02-18T12:20:43.999Z,98491.56
2023-02-18T12:23:22.440Z,98474.97
2023-02-18T12:26:01.471Z,98486.53
2023-02-18T12:28:46.400Z,98492.00
2023-02-18T12:31:29.662Z,98487.31
2023-02-18T12:34:12.242Z,98484.13
2023-02-18T12:36:54.472Z,98490.50
2023-02-18T12:39:36.210Z,98467.88
2023-02-18T12:42:29.648Z,98456.22
2023-02-18T12:45:10.229Z,98478.16
2023-02-18T12:47:51.837Z,98465.47
2023-02-18T12:50:52.288Z,98477.84
2023-02-18T12:53:32.044Z,98477.59
2023-02-18T12:56:21.230Z,98476.44
2023-02-18T12:58:59.733Z,98475.47
2023-02-18T13:01:39.691Z,98467.84
2023-02-18T13:04:36.590Z,98461.91
2023-02-18T13:07:22.937Z,98434.78
2023-02-18T13:10:07.442Z,98460.63
2023-02-18T13:12:45.881Z,98463.53
2023-02-18T13:15:20.779Z,98454.06
2023-02-18T13:17:50.975Z,98451.34
2023-02-18T13:20:26.174Z,98442.41
2023-02-18T13:22:54.105Z,98445.41
2023-02-18T13:25:23.111Z,98438.97
2023-02-18T13:28:00.490Z,98445.97
2023-02-18T13:30:35.964Z,98449.66
2023-02-18T13:33:14.893Z,98450.41
2023-02-18T13:35:49.404Z,98444.03
2023-02-18T13:38:41.372Z,98423.72
2023-02-18T13:41:10.035Z,98435.38
2023-02-18T13:43:38.129Z,98438.56
2023-02-18T13:46:10.740Z,98433.97
2023-02-18T13:48:45.642Z,98448.06
2023-02-18T13:51:16.501Z,98434.38
2023-02-18T13:53:50.933Z,98446.50
2023-02-18T13:56:27.337Z,98442.53
2023-02-18T13:59:00.625Z,98441.44
2023-02-18T14:01:40.567Z,98428.53
2023-02-18T14:04:49.659Z,98413.09
2023-02-18T14:07:29.873Z,98433.78
2023-02-18T14:09:59.297Z,98426.72
2023-02-18T14:12:38.219Z,98422.63
2023-02-18T14:15:42.030Z,98400.72
2023-02-18T14:18:23.929Z,98421.78
2023-02-18T14:20:52.676Z,98426.53
2023-02-18T14:23:56.364Z,98434.31
2023-02-18T14:26:32.115Z,98443.50
2023-02-18T14:29:06.880Z,98438.91
2023-02-18T14:31:42.562Z,98435.28
2023-02-18T14:34:42.856Z,98438.72
2023-02-18T14:37:40.934Z,98443.50
2023-02-18T14:40:42.478Z,98431.66
2023-02-18T14:43:20.466Z,98430.06
2023-02-18T14:46:13.013Z,98430.50
2023-02-18T14:48:52.224Z,98431.84
2023-02-18T14:51:23.920Z,98437.31
2023-02-18T14:53:52.405Z,98440.94
2023-02-18T14:56:23.107Z,98443.59
2023-02-18T14:58:53.913Z,98452.16
2023-02-18T15:01:24.742Z,98450.22
2023-02-18T15:03:55.289Z,98464.03
2023-02-18T15:06:29.427Z,98460.22
2023-02-18T15:08:57.465Z,98445.88
2023-02-18T15:11:36.192Z,98446.94
2023-02-18T15:14:06.464Z,98455.97
2023-02-18T15:16:35.348Z,98457.63
2023-02-18T15:19:05.632Z,98463.50
2023-02-18T15:21:36.000Z,98473.56
2023-02-18T15:24:08.190Z,98469.69
2023-02-18T15:26:42.347Z,98468.22
2023-02-18T15:29:18.938Z,98463.50
2023-02-18T15:31:47.827Z,98473.31
2023-02-18T15:34:36.117Z,98474.03
2023-02-18T15:37:05.730Z,98486.09
2023-02-18T15:39:34.015Z,98484.75
2023-02-18T15:42:09.171Z,98485.19
2023-02-18T15:44:38.597Z,98481.31
2023-02-18T15:47:09.461Z,98482.69
2023-02-18T15:49:40.340Z,98488.84
2023-02-18T15:52:09.665Z,98481.78
2023-02-18T15:54:41.153Z,98485.13
2023-02-18T15:57:15.402Z,98484.66
2023-02-18T15:59:48.476Z,98481.34
2023-02-18T16:02:20.327Z,98482.94
2023-02-18T16:04:52.065Z,98479.75
2023-02-18T16:07:25.254Z,98493.19
2023-02-18T16:10:08.705Z,98489.00
2023-02-18T16:12:40.533Z,98482.94
2023-02-18T16:15:15.724Z,98493.19
2023-02-18T16:17:45.694Z,98496.28
2023-02-18T16:20:24.272Z,98487.06
2023-02-18T16:22:54.290Z,98493.34
2023-02-18T16:25:25.386Z,98483.88
2023-02-18T16:28:04.418Z,98491.16
2023-02-18T16:30:34.099Z,98502.09
2023-02-18T16:33:02.145Z,98495.94
2023-02-18T16:35:43.958Z,98500.22
2023-02-18T16:38:19.258Z,98505.00
2023-02-18T16:40:46.956Z,98500.88
2023-02-18T16:43:17.794Z,98499.22
2023-02-18T16:45:49.615Z,98503.75
2023-02-18T16:48:22.657Z,98503.25
2023-02-18T16:50:51.682Z,98499.50
2023-02-18T16:53:19.998Z,98498.16
2023-02-18T16:55:47.785Z,98512.25
2023-02-18T16:58:16.740Z,98506.00
2023-02-18T17:00:44.937Z,98512.94
2023-02-18T17:03:14.348Z,98505.66
2023-02-18T17:05:42.156Z,98513.75
2023-02-18T17:08:18.628Z,98525.31
2023-02-18T17:10:48.164Z,98523.06
2023-02-18T17:13:18.410Z,98519.88
2023-02-18T17:15:48.042Z,98522.59
2023-02-18T17:18:16.590Z,98527.19
2023-02-18T17:20:44.773Z,98512.94
2023-02-18T17:23:16.145Z,98527.97
2023-02-18T17:25:44.199Z,98536.50
2023-02-18T17:28:12.110Z,98541.16
2023-02-18T17:30:42.875Z,98527.97
2023-02-18T17:33:14.828Z,98538.44
2023-02-18T17:35:42.726Z,98535.50
2023-02-18T17:38:12.146Z,98542.56
2023-02-18T17:40:40.390Z,98543.50
2023-02-18T17:43:11.813Z,98545.09
2023-02-18T17:45:44.448Z,98543.94
2023-02-18T17:48:12.203Z,98551.91
2023-02-18T17:50:39.806Z,98558.69
2023-02-18T17:53:08.216Z,98560.56
2023-02-18T17:55:37.546Z,98562.63
2023-02-18T17:58:05.333Z,98565.34
2023-02-18T18:00:35.639Z,98564.53
2023-02-18T18:03:05.349Z,98569.22
2023-02-18T18:05:35.540Z,98555.22
2023-02-18T18:08:04.599Z,98540.53
2023-02-18T18:10:36.798Z,98563.97
2023-02-18T18:13:06.168Z,98559.31
2023-02-18T18:15:39.593Z,98563.84
2023-02-18T18:18:10.554Z,98554.28
2023-02-18T18:20:39.354Z,98566.69
2023-02-18T18:23:08.427Z,98568.03
2023-02-18T18:25:39.527Z,98558.03
2023-02-18T18:28:08.215Z,98566.00
2023-02-18T18:30:38.446Z,98570.53
2023-02-18T18:33:16.718Z,98575.00
2023-02-18T18:35:46.856Z,98568.41
2023-02-18T18:38:14.959Z,98569.88
2023-02-18T18:40:43.234Z,98572.16
2023-02-18T18:43:17.653Z,98574.41
2023-02-18T18:45:45.380Z,98568.16
2023-02-18T18:48:14.460Z,98576.69
2023-02-18T18:50:42.582Z,98582.59
2023-02-18T18:53:18.325Z,98579.88
2023-02-18T18:55:46.582Z,98577.59
2023-02-18T18:58:14.436Z,98580.00
2023-02-18T19:00:44.178Z,98582.94
2023-02-18T19:03:14.132Z,98584.53
2023-02-18T19:05:44.485Z,98586.00
2023-02-18T19:08:13.375Z,98584.53
2023-02-18T19:10:43.790Z,98588.06
2023-02-18T19:13:15.402Z,98596.78
2023-02-18T19:15:43.814Z,98589.88
2023-02-18T19:18:15.934Z,98589.06
2023-02-18T19:20:44.304Z,98597.59
2023-02-18T19:23:12.060Z,98603.84
2023-02-18T19:25:40.933Z,98608.88
2023-02-18T19:28:11.164Z,98601.13
2023-02-18T19:30:40.359Z,98606.25
2023-02-18T19:33:08.783Z,98615.56
2023-02-18T19:35:40.100Z,98612.25
2023-02-18T19:38:08.986Z,98609.88
2023-02-18T19:40:37.058Z,98603.94
2023-02-18T19:43:05.151Z,98616.00
2023-02-18T19:45:33.167Z,98613.25
2023-02-18T19:48:02.129Z,98613.06
2023-02-18T19:50:31.629Z,98612.78
2023-02-18T19:53:00.755Z,98614.59
2023-02-18T19:55:28.590Z,98615.06
2023-02-18T19:57:56.258Z,98607.81
2023-02-18T20:00:24.645Z,98611.00
2023-02-18T20:02:53.758Z,98604.94
2023-02-18T20:05:22.072Z,98606.88
2023-02-18T20:07:49.966Z,98614.25
2023-02-18T20:10:21.086Z,98597.75
2023-02-18T20:12:53.370Z,98605.75
2023-02-18T20:15:21.512Z,98598.69
2023-02-18T20:17:49.568Z,98603.47
2023-02-18T20:20:18.078Z,98608.28
2023-02-18T20:22:46.634Z,98616.66
2023-02-18T20:25:16.051Z,98614.41
2023-02-18T20:27:59.946Z,98612.78
2023-02-18T20:30:30.933Z,98612.00
2023-02-18T20:32:59.006Z,98617.59
2023-02-18T20:35:26.899Z,98613.47
2023-02-18T20:37:54.690Z,98612.78
2023-02-18T20:40:22.517Z,98607.19
2023-02-18T20:42:51.757Z,98609.13
2023-02-18T20:45:19.879Z,98614.47
2023-02-18T20:47:47.766Z,98613.22
2023-02-18T20:50:16.048Z,98604.81
2023-02-18T20:52:44.014Z,98606.41
2023-02-18T20:55:11.986Z,98606.41
2023-02-18T20:57:39.699Z,98615.38
2023-02-18T21:00:10.259Z,98612.53
2023-02-18T21:02:39.380Z,98621.72
2023-02-18T21:05:07.527Z,98605.59
2023-02-18T21:07:36.457Z,98616.41
2023-02-18T21:10:05.121Z,98611.88
2023-02-18T21:12:32.938Z,98614.13
2023-02-18T21:15:00.922Z,98611.28
2023-02-18T21:17:30.086Z,98613.22
2023-02-18T21:19:58.350Z,98620.28
2023-02-18T21:22:26.169Z,98613.22
2023-02-18T21:24:54.199Z,98612.41
2023-02-18T21:27:22.239Z,98612.91
2023-02-18T21:29:50.424Z,98599.47
2023-02-18T21:32:18.330Z,98609.47
2023-02-18T21:34:48.433Z,98604.91
2023-02-18T21:37:16.137Z,98610.38
2023-02-18T21:39:43.875Z,98607.19
2023-02-18T21:42:11.602Z,98609.47
2023-02-18T21:44:42.619Z,98609.00
2023-02-18T21:47:10.774Z,98601.72
2023-02-18T21:49:38.810Z,98611.25
2023-02-18T21:52:10.818Z,98608.53
2023-02-18T21:54:40.691Z,98610.13
2023-02-18T21:57:11.737Z,98609.19
2023-02-18T21:59:40.685Z,98598.16
2023-02-18T22:02:15.481Z,98602.56
2023-02-18T22:04:43.526Z,98598.69
2023-02-18T22:07:13.073Z,98600.16
2023-02-18T22:09:41.274Z,98603.34
2023-02-18T22:12:10.478Z,98597.09
2023-02-18T22:14:38.292Z,98599.81
2023-02-18T22:17:06.085Z,98598.69
2023-02-18T22:19:33.783Z,98592.75
2023-02-18T22:22:02.593Z,98597.75
2023-02-18T22:24:32.482Z,98591.34
2023-02-18T22:27:01.509Z,98590.22
2023-02-18T22:29:31.400Z,98587.22
2023-02-18T22:31:59.196Z,98571.78
2023-02-18T22:34:26.907Z,98580.16
2023-02-18T22:36:54.593Z,98581.50
2023-02-18T22:39:22.366Z,98578.31
2023-02-18T22:41:51.374Z,98584.25
2023-02-18T22:44:19.000Z,98585.19
2023-02-18T22:46:46.813Z,98569.25
2023-02-18T22:49:14.531Z,98582.31
2023-02-18T22:51:44.045Z,98572.00
2023-02-18T22:54:13.588Z,98559.94
2023-02-18T22:56:41.394Z,98572.00
2023-02-18T22:59:11.784Z,98558.16
2023-02-18T23:01:41.324Z,98567.00
2023-02-18T23:04:11.231Z,98568.13
2023-02-18T23:06:40.394Z,98564.97
2023-02-18T23:09:09.443Z,98565.16
2023-02-18T23:11:37.178Z,98571.53
2023-02-18T23:14:20.120Z,98561.28
2023-02-18T23:17:08.852Z,98550.56
2023-02-18T23:19:38.025Z,98547.38
2023-02-18T23:22:06.384Z,98541.00
2023-02-18T23:24:35.132Z,98550.19
2023-02-18T23:27:03.169Z,98548.25
2023-02-18T23:29:30.868Z,98549.06
2023-02-18T23:31:59.986Z,98545.19
2023-02-18T23:34:28.509Z,98533.50
2023-02-18T23:36:56.478Z,98542.34
2023-02-18T23:39:24.405Z,98547.97
2023-02-18T23:41:52.799Z,98541.72
2023-02-18T23:44:22.294Z,98544.91
2023-02-18T23:46:50.197Z,98540.13
2023-02-18T23:49:22.043Z,98531.81
2023-02-18T23:51:50.268Z,98532.66
2023-02-18T23:54:18.200Z,98524.97
2023-02-18T23:56:46.361Z,98524.81
2023-02-18T23:59:14.353Z,98537.84
